.
WxDataArchive / Data Records for 2013-03-26
2013-03-25 March 2013 2013-03-27

Data Records for Tuesday, 26 March 2013

Time	Temp	Chill	HIndex	Humid	Dewpt	 Wind 	HiWind	WindDir	Rain 	Barom 
-----	----	-----	------	-----	-----	------	------	-------	-----	----- 
00:00	32.7	32.7	32.7	81	27.5	1	3	292	0.00	29.959 
00:05	32.7	32.7	32.7	81	27.5	1	3	292	0.00	29.959 
00:10	32.5	32.5	32.5	81	27.3	1	4	270	0.00	29.959 
00:15	32.5	32.5	32.5	81	27.3	1	3	292	0.00	29.958 
00:20	32.5	32.5	32.5	81	27.3	1	3	292	0.00	29.958 
00:25	32.5	32.5	32.5	81	27.3	1	3	292	0.00	29.958 
00:30	32.5	32.5	32.5	81	27.3	0	3	315	0.00	29.961 
00:35	32.5	32.5	32.5	81	27.3	0	3	270	0.00	29.961 
00:40	32.5	32.5	32.5	81	27.3	1	3	338	0.00	29.961 
00:45	32.7	32.7	32.7	81	27.5	1	5	315	0.00	29.963 
00:50	32.8	32.8	32.8	80	27.3	1	3	292	0.00	29.963 
00:55	32.8	32.8	32.8	80	27.3	1	3	270	0.00	29.963 
01:00	32.9	32.9	32.9	79	27.1	1	5	292	0.00	29.965 
01:05	32.9	32.9	32.9	79	27.1	1	2	338	0.00	29.965 
01:10	32.9	32.9	32.9	79	27.1	1	4	270	0.00	29.965 
01:15	32.9	32.9	32.9	79	27.1	0	2	292	0.00	29.973 
01:20	33.1	33.1	33.1	78	27.0	1	5	315	0.00	29.973 
01:25	33.1	33.1	33.1	78	27.0	1	5	270	0.00	29.973 
01:30	33.1	33.1	33.1	78	27.0	1	4	292	0.00	29.974 
01:35	33.1	33.1	33.1	78	27.0	1	3	315	0.00	29.974 
01:40	33.1	33.1	33.1	78	27.0	1	4	270	0.00	29.974 
01:45	33.2	33.2	33.2	77	26.8	2	4	270	0.00	29.975 
01:50	33.2	33.2	33.2	77	26.8	1	3	292	0.00	29.975 
01:55	33.1	33.1	33.1	77	26.7	1	4	292	0.00	29.975 
02:00	33.1	33.1	33.1	77	26.7	1	4	292	0.00	29.977 
02:05	33.2	33.2	33.2	77	26.8	1	3	338	0.00	29.977 
02:10	33.2	33.2	33.2	77	26.8	1	3	315	0.00	29.977 
02:15	33.2	33.2	33.2	77	26.8	1	3	338	0.00	29.981 
02:20	33.2	33.2	33.2	77	26.8	1	3	270	0.00	29.981 
02:25	33.4	33.4	33.4	77	27.0	2	4	270	0.00	29.981 
02:30	33.4	33.4	33.4	77	27.0	1	3	338	0.00	29.984 
02:35	33.4	33.4	33.4	77	27.0	1	3	338	0.00	29.984 
02:40	33.4	33.4	33.4	77	27.0	1	4	338	0.00	29.984 
02:45	33.4	33.4	33.4	77	27.0	1	4	338	0.00	29.989 
02:50	33.4	33.4	33.4	77	27.0	1	3	292	0.00	29.989 
02:55	33.2	33.2	33.2	78	27.1	1	4	338	0.00	29.989 
03:00	33.2	33.2	33.2	79	27.4	1	3	315	0.00	29.989 
03:05	33.1	33.1	33.1	79	27.3	1	4	270	0.00	29.989 
03:10	33.1	33.1	33.1	80	27.6	1	3	315	0.00	29.989 
03:15	32.9	32.9	32.9	80	27.4	1	3	315	0.00	29.988 
03:20	32.9	32.9	32.9	81	27.7	1	5	315	0.00	29.988 
03:25	32.9	32.9	32.9	81	27.7	1	2	292	0.00	29.988 
03:30	32.9	32.9	32.9	81	27.7	0	2	292	0.00	29.988 
03:35	32.9	32.9	32.9	81	27.7	1	4	292	0.00	29.988 
03:40	32.9	32.9	32.9	81	27.7	1	3	292	0.00	29.988 
03:45	32.9	32.9	32.9	81	27.7	1	4	270	0.00	29.988 
03:50	32.9	32.9	32.9	81	27.7	1	4	270	0.00	29.988 
03:55	32.8	32.8	32.8	81	27.6	1	3	315	0.00	29.988 
04:00	32.8	32.8	32.8	81	27.6	1	4	292	0.00	29.990 
04:05	32.8	32.8	32.8	81	27.6	1	2	292	0.00	29.990 
04:10	32.7	32.7	32.7	81	27.5	1	5	292	0.00	29.990 
04:15	32.7	32.7	32.7	81	27.5	0	2	292	0.00	29.990 
04:20	32.5	32.5	32.5	81	27.3	1	2	292	0.00	29.990 
04:25	32.5	32.5	32.5	81	27.3	0	2	270	0.00	29.990 
04:30	32.5	32.5	32.5	82	27.6	1	2	270	0.00	29.992 
04:35	32.4	32.4	32.4	82	27.5	1	3	338	0.00	29.992 
04:40	32.4	32.4	32.4	82	27.5	1	3	315	0.00	29.992 
04:45	32.4	32.4	32.4	82	27.5	0	2	315	0.00	29.996 
04:50	32.4	32.4	32.4	82	27.5	1	3	315	0.00	29.996 
04:55	32.4	32.4	32.4	82	27.5	0	3	315	0.00	29.996 
05:00	32.2	32.2	32.2	82	27.3	0	3	315	0.00	30.000 
05:05	32.2	32.2	32.2	82	27.3	1	2	315	0.00	30.000 
05:10	32.2	32.2	32.2	82	27.3	0	2	315	0.00	30.000 
05:15	32.2	32.2	32.2	82	27.3	1	2	315	0.00	30.003 
05:20	32.2	32.2	32.2	81	27.0	1	3	292	0.00	30.003 
05:25	32.2	32.2	32.2	81	27.0	0	3	292	0.00	30.003 
05:30	32.2	32.2	32.2	81	27.0	0	2	292	0.00	30.004 
05:35	32.1	32.1	32.1	81	26.9	0	2	292	0.00	30.004 
05:40	32.1	32.1	32.1	81	26.9	0	2	292	0.00	30.004 
05:45	32.1	32.1	32.1	81	26.9	0	2	292	0.00	30.006 
05:50	32.1	32.1	32.1	81	26.9	0	2	270	0.00	30.006 
05:55	32.1	32.1	32.1	81	26.9	1	3	270	0.00	30.006 
06:00	32.1	32.1	32.1	81	26.9	1	2	270	0.00	30.006 
06:05	32.1	32.1	32.1	80	26.6	0	3	270	0.00	30.006 
06:10	32.1	32.1	32.1	80	26.6	0	2	0	0.00	30.006 
06:15	32.1	32.1	32.1	80	26.6	1	3	292	0.00	30.016 
06:20	32.1	32.1	32.1	80	26.6	0	2	315	0.00	30.016 
06:25	32.1	32.1	32.1	79	26.3	0	4	338	0.00	30.016 
06:30	32.1	32.1	32.1	79	26.3	0	2	338	0.00	30.019 
06:35	32.1	32.1	32.1	79	26.3	0	2	338	0.00	30.019 
06:40	31.9	31.9	31.9	79	26.1	1	3	270	0.00	30.019 
06:45	31.9	31.9	31.9	79	26.1	0	2	315	0.00	30.021 
06:50	31.9	31.9	31.9	79	26.1	1	3	315	0.00	30.021 
06:55	31.9	31.9	31.9	79	26.1	0	2	315	0.00	30.021 
07:00	31.9	31.9	31.9	78	25.8	0	2	315	0.00	30.028 
07:05	31.9	31.9	31.9	78	25.8	0	2	315	0.00	30.028 
07:10	31.9	31.9	31.9	78	25.8	1	2	315	0.00	30.028 
07:15	31.9	31.9	31.9	78	25.8	0	3	315	0.00	30.036 
07:20	31.9	31.9	31.9	78	25.8	0	2	315	0.00	30.036 
07:25	31.9	31.9	31.9	78	25.8	0	3	315	0.00	30.036 
07:30	31.8	31.8	31.8	78	25.7	1	2	315	0.00	30.043 
07:35	31.9	31.9	31.9	78	25.8	1	2	315	0.00	30.043 
07:40	31.9	31.9	31.9	78	25.8	0	2	315	0.00	30.043 
07:45	31.8	31.8	31.8	78	25.7	0	2	315	0.00	30.052 
07:50	31.9	31.9	31.9	78	25.8	0	3	338	0.00	30.052 
07:55	31.9	31.9	31.9	78	25.8	1	2	338	0.00	30.052 
08:00	31.9	31.9	31.9	78	25.8	1	3	338	0.00	30.056 
08:05	32.1	32.1	32.1	78	26.0	1	2	338	0.00	30.056 
08:10	32.1	32.1	32.1	78	26.0	0	2	338	0.00	30.056 
08:15	32.1	32.1	32.1	78	26.0	1	3	338	0.00	30.060 
08:20	32.1	32.1	32.1	78	26.0	1	2	338	0.00	30.060 
08:25	32.1	32.1	32.1	78	26.0	1	3	315	0.00	30.060 
08:30	32.2	32.2	32.2	78	26.1	1	3	315	0.00	30.068 
08:35	32.2	32.2	32.2	78	26.1	1	3	315	0.00	30.068 
08:40	32.4	32.4	32.4	78	26.3	1	4	292	0.00	30.068 
08:45	32.4	32.4	32.4	78	26.3	1	4	292	0.00	30.071 
08:50	32.5	32.5	32.5	77	26.1	1	4	315	0.00	30.071 
08:55	32.7	32.7	32.7	77	26.3	1	4	338	0.00	30.071 
09:00	32.8	32.8	32.8	77	26.4	1	5	315	0.00	30.078 
09:05	32.9	32.9	32.9	77	26.5	1	3	270	0.00	30.078 
09:10	32.9	32.9	32.9	77	26.5	2	6	270	0.00	30.078 
09:15	33.1	33.1	33.1	77	26.7	1	6	338	0.00	30.084 
09:20	33.2	33.2	33.2	77	26.8	1	5	270	0.00	30.084 
09:25	33.4	33.4	33.4	77	27.0	1	3	270	0.00	30.084 
09:30	33.5	33.5	33.5	76	26.8	1	6	292	0.00	30.085 
09:35	33.7	33.7	33.7	76	27.0	1	5	0	0.00	30.085 
09:40	34.0	34.0	34.0	76	27.2	1	3	338	0.00	30.085 
09:45	34.0	34.0	34.0	75	26.9	2	6	315	0.00	30.087 
09:50	34.3	34.3	34.3	75	27.2	1	3	292	0.00	30.087 
09:55	34.6	34.6	34.6	74	27.2	1	5	315	0.00	30.087 
10:00	34.7	34.7	34.7	74	27.3	2	6	315	0.00	30.090 
10:05	35.0	35.0	35.0	74	27.6	1	3	315	0.00	30.090 
10:10	35.3	35.3	35.3	73	27.5	2	3	338	0.00	30.090 
10:15	35.5	35.5	35.5	73	27.7	1	4	270	0.00	30.093 
10:20	35.6	35.6	35.6	72	27.5	2	4	292	0.00	30.093 
10:25	35.6	35.6	35.6	72	27.5	2	4	315	0.01	30.093 
10:30	35.8	35.8	35.8	72	27.7	2	5	338	0.00	30.096 
10:35	35.8	35.8	35.8	72	27.7	2	5	315	0.00	30.096 
10:40	35.6	35.6	35.6	72	27.5	2	5	338	0.00	30.096 
10:45	35.8	35.8	35.8	73	28.0	1	4	338	0.00	30.097 
10:50	36.2	36.2	36.2	73	28.4	1	4	338	0.00	30.097 
10:55	36.6	36.6	36.6	72	28.4	2	5	248	0.00	30.097 
11:00	36.8	36.8	36.8	71	28.3	2	4	270	0.00	30.102 
11:05	36.9	36.9	36.9	71	28.4	1	4	292	0.00	30.102 
11:10	36.9	36.9	36.9	70	28.0	2	4	315	0.00	30.102 
11:15	37.0	37.0	37.0	69	27.8	2	4	248	0.00	30.105 
11:20	37.0	37.0	37.0	68	27.4	2	7	338	0.00	30.105 
11:25	37.5	37.5	37.5	69	28.3	1	6	338	0.00	30.105 
11:30	38.2	38.2	38.2	68	28.6	1	4	248	0.00	30.104 
11:35	38.5	38.5	38.5	66	28.1	1	5	338	0.00	30.104 
11:40	38.9	38.9	38.9	65	28.2	1	4	270	0.00	30.104 
11:45	39.1	39.1	39.1	64	28.0	2	4	270	0.00	30.103 
11:50	38.8	38.8	38.8	64	27.7	1	3	270	0.00	30.103 
11:55	38.9	38.9	38.9	65	28.2	2	4	248	0.00	30.103 
12:00	38.9	38.9	38.9	65	28.2	2	4	315	0.00	30.109 
12:05	39.1	39.1	39.1	64	28.0	2	4	270	0.00	30.109 
12:10	38.8	38.8	38.8	65	28.1	2	4	270	0.00	30.109 
12:15	39.1	39.1	39.1	65	28.3	2	5	292	0.00	30.109 
12:20	39.5	39.5	39.5	64	28.3	2	5	315	0.00	30.109 
12:25	39.9	39.9	39.9	64	28.7	1	4	338	0.00	30.109 
12:30	40.1	40.1	40.1	62	28.1	3	5	248	0.00	30.109 
12:35	39.9	39.9	39.9	61	27.6	3	7	338	0.00	30.109 
12:40	40.1	40.1	40.1	62	28.1	2	5	315	0.00	30.109 
12:45	40.3	40.3	40.3	61	27.9	1	4	292	0.00	30.110 
12:50	40.2	40.2	40.2	60	27.4	2	6	315	0.00	30.110 
12:55	40.2	40.2	40.2	58	26.6	2	5	315	0.00	30.110 
13:00	40.1	40.1	40.1	59	26.9	2	6	270	0.00	30.111 
13:05	40.6	40.6	40.6	58	27.0	2	5	270	0.00	30.111 
13:10	40.8	40.8	40.8	58	27.2	1	4	315	0.00	30.111 
13:15	40.5	40.5	40.5	56	26.1	2	6	292	0.00	30.109 
13:20	40.5	40.5	40.5	57	26.5	2	7	270	0.00	30.109 
13:25	40.1	40.1	40.1	54	24.8	2	9	338	0.00	30.109 
13:30	40.2	40.2	40.2	55	25.3	2	6	292	0.00	30.111 
13:35	39.9	39.9	39.9	55	25.1	2	7	338	0.00	30.111 
13:40	39.6	39.6	39.6	56	25.2	2	4	338	0.00	30.111 
13:45	39.5	39.5	39.5	56	25.1	1	4	315	0.00	30.110 
13:50	39.3	39.3	39.3	56	24.9	2	5	338	0.00	30.110 
13:55	39.5	39.5	39.5	57	25.5	1	5	315	0.00	30.110 
14:00	39.9	39.9	39.9	58	26.3	2	4	270	0.00	30.113 
14:05	40.1	40.1	40.1	57	26.1	2	4	292	0.00	30.113 
14:10	40.3	40.3	40.3	57	26.3	2	4	248	0.00	30.113 
14:15	40.5	40.5	40.5	56	26.1	1	3	248	0.00	30.112 
14:20	40.5	40.5	40.5	55	25.6	2	3	315	0.00	30.112 
14:25	40.5	40.5	40.5	53	24.7	2	5	270	0.00	30.112 
14:30	40.1	40.1	40.1	52	23.9	3	7	292	0.00	30.114 
14:35	39.9	39.9	39.9	53	24.2	1	5	315	0.00	30.114 
14:40	39.9	39.9	39.9	51	23.3	1	5	315	0.00	30.114 
14:45	40.2	40.2	40.2	53	24.5	1	3	270	0.00	30.112 
14:50	40.1	40.1	40.1	53	24.4	1	4	315	0.00	30.112 
14:55	40.2	40.2	40.2	53	24.5	1	4	315	0.00	30.112 
15:00	39.9	39.9	39.9	53	24.2	1	3	270	0.00	30.112 
15:05	39.9	39.9	39.9	54	24.6	1	5	315	0.00	30.112 
15:10	40.1	40.1	40.1	54	24.8	1	5	270	0.00	30.112 
15:15	40.2	40.2	40.2	54	24.9	2	6	292	0.00	30.111 
15:20	39.8	39.8	39.8	58	26.2	3	5	270	0.00	30.111 
15:25	39.5	39.5	39.5	59	26.4	3	7	292	0.00	30.111 
15:30	39.6	39.6	39.6	59	26.5	1	4	270	0.00	30.112 
15:35	39.8	39.8	39.8	59	26.7	1	4	315	0.00	30.112 
15:40	40.1	40.1	40.1	58	26.5	1	5	270	0.00	30.112 
15:45	40.2	40.2	40.2	56	25.8	2	5	248	0.00	30.111 
15:50	39.9	39.9	39.9	55	25.1	3	7	315	0.00	30.111 
15:55	39.9	39.9	39.9	55	25.1	2	6	270	0.00	30.111 
16:00	39.9	39.9	39.9	55	25.1	2	6	248	0.00	30.111 
16:05	39.8	39.8	39.8	55	25.0	3	6	248	0.00	30.111 
16:10	39.5	39.5	39.5	55	24.7	2	6	270	0.00	30.111 
16:15	39.5	39.5	39.5	55	24.7	2	5	315	0.00	30.113 
16:20	39.6	39.6	39.6	54	24.3	2	5	225	0.00	30.113 
16:25	39.9	39.9	39.9	53	24.2	2	6	270	0.00	30.113 
16:30	39.9	39.9	39.9	53	24.2	2	4	270	0.00	30.115 
16:35	39.6	39.6	39.6	54	24.3	3	7	292	0.00	30.115 
16:40	39.5	39.5	39.5	55	24.7	2	5	315	0.00	30.115 
16:45	39.3	39.3	39.3	55	24.5	3	7	315	0.00	30.120 
16:50	39.2	39.2	39.2	56	24.8	2	5	315	0.00	30.120 
16:55	39.3	39.3	39.3	56	24.9	2	5	338	0.00	30.120 
17:00	39.2	39.2	39.2	55	24.4	3	7	338	0.00	30.121 
17:05	39.2	39.2	39.2	57	25.3	2	8	338	0.00	30.121 
17:10	39.1	39.1	39.1	56	24.7	3	5	338	0.00	30.121 
17:15	38.9	38.9	38.9	56	24.6	3	7	292	0.00	30.124 
17:20	38.9	38.9	38.9	58	25.4	2	9	248	0.00	30.124 
17:25	38.6	38.6	38.6	59	25.5	3	6	315	0.00	30.124 
17:30	38.6	38.6	38.6	60	25.9	2	6	270	0.00	30.127 
17:35	38.5	38.5	38.5	62	26.6	2	6	270	0.00	30.127 
17:40	38.3	38.3	38.3	63	26.8	2	5	292	0.00	30.127 
17:45	38.0	38.0	38.0	64	26.9	2	6	270	0.00	30.130 
17:50	37.9	37.9	37.9	65	27.2	2	5	270	0.00	30.130 
17:55	37.6	37.6	37.6	66	27.3	2	5	248	0.00	30.130 
18:00	37.3	37.3	37.3	66	27.0	2	6	248	0.00	30.135 
18:05	37.2	37.2	37.2	67	27.3	2	5	270	0.00	30.135 
18:10	37.0	37.0	37.0	67	27.1	2	5	270	0.00	30.135 
18:15	36.9	36.9	36.9	68	27.3	1	3	248	0.00	30.143 
18:20	36.9	36.9	36.9	69	27.7	1	4	248	0.00	30.143 
18:25	36.8	36.8	36.8	69	27.6	2	6	270	0.00	30.143 
18:30	36.6	36.6	36.6	69	27.4	2	6	270	0.00	30.146 
18:35	36.6	36.6	36.6	69	27.4	1	4	270	0.00	30.146 
18:40	36.5	36.5	36.5	70	27.7	1	4	270	0.00	30.146 
18:45	36.5	36.5	36.5	71	28.0	1	4	248	0.00	30.152 
18:50	36.5	36.5	36.5	71	28.0	1	3	315	0.00	30.152 
18:55	36.5	36.5	36.5	71	28.0	1	4	248	0.00	30.152 
19:00	36.5	36.5	36.5	71	28.0	1	4	248	0.00	30.158 
19:05	36.5	36.5	36.5	71	28.0	1	3	248	0.00	30.158 
19:10	36.5	36.5	36.5	71	28.0	2	4	248	0.00	30.158 
19:15	36.5	36.5	36.5	71	28.0	1	3	270	0.00	30.159 
19:20	36.5	36.5	36.5	70	27.7	1	4	270	0.00	30.159 
19:25	36.5	36.5	36.5	70	27.7	1	2	270	0.00	30.159 
19:30	36.5	36.5	36.5	70	27.7	1	3	270	0.00	30.161 
19:35	36.5	36.5	36.5	69	27.3	1	4	270	0.00	30.161 
19:40	36.6	36.6	36.6	69	27.4	1	3	270	0.00	30.161 
19:45	36.6	36.6	36.6	69	27.4	1	9	315	0.00	30.163 
19:50	36.5	36.5	36.5	68	27.0	1	2	315	0.00	30.163 
19:55	36.5	36.5	36.5	68	27.0	2	4	292	0.00	30.163 
20:00	36.3	36.3	36.3	66	26.0	2	5	315	0.00	30.167 
20:05	36.3	36.3	36.3	66	26.0	1	3	315	0.00	30.167 
20:10	36.2	36.2	36.2	66	26.0	2	5	248	0.00	30.167 
20:15	36.0	36.0	36.0	67	26.1	1	4	292	0.00	30.169 
20:20	35.9	35.9	35.9	67	26.0	1	3	248	0.00	30.169 
20:25	35.8	35.8	35.8	68	26.3	2	4	270	0.00	30.169 
20:30	35.8	35.8	35.8	68	26.3	2	5	270	0.00	30.175 
20:35	35.6	35.6	35.6	69	26.4	2	4	270	0.00	30.175 
20:40	35.5	35.5	35.5	69	26.4	2	4	270	0.00	30.175 
20:45	35.5	35.5	35.5	70	26.7	1	2	292	0.00	30.178 
20:50	35.3	35.3	35.3	70	26.5	2	3	248	0.00	30.178 
20:55	35.3	35.3	35.3	70	26.5	1	3	248	0.00	30.178 
21:00	35.2	35.2	35.2	71	26.8	2	4	248	0.00	30.179 
21:05	35.2	35.2	35.2	71	26.8	1	4	248	0.00	30.179 
21:10	35.2	35.2	35.2	72	27.1	1	4	292	0.00	30.179 
21:15	35.0	35.0	35.0	73	27.2	1	3	292	0.00	30.181 
21:20	35.0	35.0	35.0	73	27.2	1	4	270	0.00	30.181 
21:25	34.9	34.9	34.9	73	27.1	1	4	248	0.00	30.181 
21:30	34.9	34.9	34.9	74	27.5	1	4	248	0.00	30.188 
21:35	34.7	34.7	34.7	74	27.3	1	3	248	0.00	30.188 
21:40	34.7	34.7	34.7	75	27.6	1	3	315	0.00	30.188 
21:45	34.7	34.7	34.7	75	27.6	1	3	270	0.00	30.190 
21:50	34.7	34.7	34.7	75	27.6	1	4	248	0.00	30.190 
21:55	34.7	34.7	34.7	75	27.6	1	3	248	0.00	30.190 
22:00	34.7	34.7	34.7	76	27.9	1	2	248	0.00	30.192 
22:05	34.7	34.7	34.7	76	27.9	1	3	248	0.00	30.192 
22:10	34.7	34.7	34.7	76	27.9	1	2	248	0.00	30.192 
22:15	34.7	34.7	34.7	76	27.9	1	2	248	0.00	30.193 
22:20	34.7	34.7	34.7	76	27.9	1	4	248	0.00	30.193 
22:25	34.7	34.7	34.7	76	27.9	1	4	315	0.00	30.193 
22:30	34.7	34.7	34.7	76	27.9	1	3	248	0.00	30.191 
22:35	34.7	34.7	34.7	76	27.9	1	2	248	0.00	30.191 
22:40	34.6	34.6	34.6	76	27.8	1	4	338	0.00	30.191 
22:45	34.6	34.6	34.6	76	27.8	1	2	315	0.00	30.192 
22:50	34.4	34.4	34.4	77	27.9	1	3	315	0.00	30.192 
22:55	34.4	34.4	34.4	77	27.9	1	3	270	0.00	30.192 
23:00	34.4	34.4	34.4	77	27.9	1	3	248	0.00	30.191 
23:05	34.3	34.3	34.3	77	27.9	1	3	248	0.00	30.191 
23:10	34.3	34.3	34.3	77	27.9	1	3	270	0.00	30.191 
23:15	34.3	34.3	34.3	77	27.9	1	4	248	0.00	30.189 
23:20	34.1	34.1	34.1	77	27.7	1	2	248	0.00	30.189 
23:25	34.1	34.1	34.1	77	27.7	1	2	248	0.00	30.189 
23:30	34.1	34.1	34.1	78	28.0	1	3	248	0.00	30.189 
23:35	34.1	34.1	34.1	78	28.0	1	3	248	0.00	30.189 
23:40	34.1	34.1	34.1	78	28.0	1	2	248	0.00	30.189 
23:45	34.1	34.1	34.1	78	28.0	0	2	248	0.00	30.191 
23:50	34.1	34.1	34.1	78	28.0	1	4	248	0.00	30.191 
23:55	34.1	34.1	34.1	78	28.0	1	4	248	0.00	30.191 

CoCoRaHS
IN-AL-39
A2 Web Hosting
Creative Commons License
GoDaddy
search engine by freefind advanced

loaded 2018-11-15 06:01:30 • last modified 2010-11-18 10:43:29
Privacy PolicyDisclaimer
• wx.awcolley.com is powered by PmWiki v.2002016 •
• all content (unless otherwise noted) © 2018 A W Colley